sensor_id;sensor_type;location;lat;lon;timestamp;P1;durP1;ratioP1;P2;durP2;ratioP2
70832;SDS011;58452;59.418;17.962;2023-06-22T00:00:27;8.95;;;7.15;;
70832;SDS011;58452;59.418;17.962;2023-06-22T00:02:52;7.97;;;7.18;;
70832;SDS011;58452;59.418;17.962;2023-06-22T00:05:18;7.45;;;6.85;;
70832;SDS011;58452;59.418;17.962;2023-06-22T00:07:43;8.60;;;7.78;;
70832;SDS011;58452;59.418;17.962;2023-06-22T00:10:08;7.90;;;7.20;;
70832;SDS011;58452;59.418;17.962;2023-06-22T00:12:34;10.40;;;7.90;;
70832;SDS011;58452;59.418;17.962;2023-06-22T00:14:59;8.90;;;7.68;;
70832;SDS011;58452;59.418;17.962;2023-06-22T00:17:25;8.75;;;7.95;;
70832;SDS011;58452;59.418;17.962;2023-06-22T00:19:50;10.45;;;8.20;;
70832;SDS011;58452;59.418;17.962;2023-06-22T00:22:18;8.65;;;7.75;;
70832;SDS011;58452;59.418;17.962;2023-06-22T00:24:53;9.67;;;7.20;;
70832;SDS011;58452;59.418;17.962;2023-06-22T00:27:18;9.38;;;8.40;;
70832;SDS011;58452;59.418;17.962;2023-06-22T00:29:44;8.52;;;7.80;;
70832;SDS011;58452;59.418;17.962;2023-06-22T00:32:09;8.57;;;7.88;;
70832;SDS011;58452;59.418;17.962;2023-06-22T00:34:35;9.15;;;8.25;;
70832;SDS011;58452;59.418;17.962;2023-06-22T00:37:00;8.88;;;8.07;;
70832;SDS011;58452;59.418;17.962;2023-06-22T00:39:25;8.68;;;7.88;;
70832;SDS011;58452;59.418;17.962;2023-06-22T00:41:51;8.13;;;7.43;;
70832;SDS011;58452;59.418;17.962;2023-06-22T00:44:16;7.93;;;7.20;;
70832;SDS011;58452;59.418;17.962;2023-06-22T00:46:41;9.70;;;8.65;;
70832;SDS011;58452;59.418;17.962;2023-06-22T00:49:07;9.85;;;7.85;;
70832;SDS011;58452;59.418;17.962;2023-06-22T00:51:32;10.02;;;8.73;;
70832;SDS011;58452;59.418;17.962;2023-06-22T00:53:58;8.05;;;7.35;;
70832;SDS011;58452;59.418;17.962;2023-06-22T00:56:23;9.65;;;8.25;;
70832;SDS011;58452;59.418;17.962;2023-06-22T00:58:49;8.55;;;7.80;;
70832;SDS011;58452;59.418;17.962;2023-06-22T01:01:17;11.07;;;8.18;;
70832;SDS011;58452;59.418;17.962;2023-06-22T01:03:48;9.35;;;7.97;;
70832;SDS011;58452;59.418;17.962;2023-06-22T01:06:15;10.38;;;9.40;;
70832;SDS011;58452;59.418;17.962;2023-06-22T01:09:18;10.07;;;9.05;;
70832;SDS011;58452;59.418;17.962;2023-06-22T01:11:57;9.27;;;8.40;;
70832;SDS011;58452;59.418;17.962;2023-06-22T01:17:05;9.50;;;8.50;;
70832;SDS011;58452;59.418;17.962;2023-06-22T01:22:14;10.13;;;8.35;;
70832;SDS011;58452;59.418;17.962;2023-06-22T01:24:48;10.50;;;9.60;;
70832;SDS011;58452;59.418;17.962;2023-06-22T01:27:26;10.05;;;9.15;;
70832;SDS011;58452;59.418;17.962;2023-06-22T01:29:55;10.13;;;9.32;;
70832;SDS011;58452;59.418;17.962;2023-06-22T01:32:29;10.73;;;9.68;;
70832;SDS011;58452;59.418;17.962;2023-06-22T01:34:57;10.15;;;9.15;;
70832;SDS011;58452;59.418;17.962;2023-06-22T01:37:25;10.65;;;9.57;;
70832;SDS011;58452;59.418;17.962;2023-06-22T01:39:51;11.30;;;10.25;;
70832;SDS011;58452;59.418;17.962;2023-06-22T01:42:17;11.07;;;10.07;;
70832;SDS011;58452;59.418;17.962;2023-06-22T01:44:43;10.70;;;9.52;;
70832;SDS011;58452;59.418;17.962;2023-06-22T01:47:09;11.15;;;9.90;;
70832;SDS011;58452;59.418;17.962;2023-06-22T01:49:35;12.18;;;11.07;;
70832;SDS011;58452;59.418;17.962;2023-06-22T01:52:01;12.18;;;10.95;;
70832;SDS011;58452;59.418;17.962;2023-06-22T01:54:28;12.45;;;11.40;;
70832;SDS011;58452;59.418;17.962;2023-06-22T01:56:53;11.05;;;9.90;;
70832;SDS011;58452;59.418;17.962;2023-06-22T01:59:29;12.05;;;10.95;;
70832;SDS011;58452;59.418;17.962;2023-06-22T02:02:06;11.85;;;10.65;;
70832;SDS011;58452;59.418;17.962;2023-06-22T02:07:12;11.45;;;10.45;;
70832;SDS011;58452;59.418;17.962;2023-06-22T02:09:42;13.80;;;11.20;;
70832;SDS011;58452;59.418;17.962;2023-06-22T02:12:11;13.05;;;11.85;;
70832;SDS011;58452;59.418;17.962;2023-06-22T02:14:38;15.77;;;12.32;;
70832;SDS011;58452;59.418;17.962;2023-06-22T02:17:05;14.13;;;12.63;;
70832;SDS011;58452;59.418;17.962;2023-06-22T02:19:32;12.27;;;10.95;;
70832;SDS011;58452;59.418;17.962;2023-06-22T02:22:01;12.77;;;11.50;;
70832;SDS011;58452;59.418;17.962;2023-06-22T02:24:27;12.30;;;11.20;;
70832;SDS011;58452;59.418;17.962;2023-06-22T02:26:55;13.57;;;12.38;;
70832;SDS011;58452;59.418;17.962;2023-06-22T02:29:22;13.52;;;12.23;;
70832;SDS011;58452;59.418;17.962;2023-06-22T02:31:48;11.68;;;10.60;;
70832;SDS011;58452;59.418;17.962;2023-06-22T02:34:13;12.77;;;11.57;;
70832;SDS011;58452;59.418;17.962;2023-06-22T02:36:43;12.70;;;11.38;;
70832;SDS011;58452;59.418;17.962;2023-06-22T02:41:43;13.68;;;12.43;;
70832;SDS011;58452;59.418;17.962;2023-06-22T02:44:09;12.25;;;11.15;;
70832;SDS011;58452;59.418;17.962;2023-06-22T02:46:35;12.85;;;11.43;;
70832;SDS011;58452;59.418;17.962;2023-06-22T02:49:01;13.30;;;12.10;;
70832;SDS011;58452;59.418;17.962;2023-06-22T02:51:26;12.32;;;11.23;;
70832;SDS011;58452;59.418;17.962;2023-06-22T02:53:51;13.13;;;11.60;;
70832;SDS011;58452;59.418;17.962;2023-06-22T02:56:22;12.57;;;11.10;;
70832;SDS011;58452;59.418;17.962;2023-06-22T02:58:50;12.30;;;11.20;;
70832;SDS011;58452;59.418;17.962;2023-06-22T03:01:18;13.10;;;11.90;;
70832;SDS011;58452;59.418;17.962;2023-06-22T03:03:49;12.63;;;11.38;;
70832;SDS011;58452;59.418;17.962;2023-06-22T03:06:15;11.90;;;10.80;;
70832;SDS011;58452;59.418;17.962;2023-06-22T03:08:40;13.38;;;11.88;;
70832;SDS011;58452;59.418;17.962;2023-06-22T03:11:06;12.73;;;11.45;;
70832;SDS011;58452;59.418;17.962;2023-06-22T03:13:32;11.98;;;10.88;;
70832;SDS011;58452;59.418;17.962;2023-06-22T03:15:58;13.00;;;10.40;;
70832;SDS011;58452;59.418;17.962;2023-06-22T03:18:24;12.65;;;11.45;;
70832;SDS011;58452;59.418;17.962;2023-06-22T03:20:49;11.52;;;10.32;;
70832;SDS011;58452;59.418;17.962;2023-06-22T03:23:14;12.00;;;10.95;;
70832;SDS011;58452;59.418;17.962;2023-06-22T03:25:40;12.13;;;11.02;;
70832;SDS011;58452;59.418;17.962;2023-06-22T03:28:06;12.32;;;10.98;;
70832;SDS011;58452;59.418;17.962;2023-06-22T03:30:31;12.55;;;11.13;;
70832;SDS011;58452;59.418;17.962;2023-06-22T03:32:57;12.10;;;11.02;;
70832;SDS011;58452;59.418;17.962;2023-06-22T03:35:22;11.68;;;10.65;;
70832;SDS011;58452;59.418;17.962;2023-06-22T03:37:48;12.15;;;10.82;;
70832;SDS011;58452;59.418;17.962;2023-06-22T03:40:13;12.18;;;10.88;;
70832;SDS011;58452;59.418;17.962;2023-06-22T03:42:39;13.02;;;11.63;;
70832;SDS011;58452;59.418;17.962;2023-06-22T03:45:04;11.93;;;10.82;;
70832;SDS011;58452;59.418;17.962;2023-06-22T03:47:30;12.63;;;11.45;;
70832;SDS011;58452;59.418;17.962;2023-06-22T03:49:56;12.57;;;11.35;;
70832;SDS011;58452;59.418;17.962;2023-06-22T03:52:21;12.25;;;11.15;;
70832;SDS011;58452;59.418;17.962;2023-06-22T03:54:47;12.80;;;11.60;;
70832;SDS011;58452;59.418;17.962;2023-06-22T03:57:13;12.07;;;11.00;;
70832;SDS011;58452;59.418;17.962;2023-06-22T03:59:38;13.00;;;11.70;;
70832;SDS011;58452;59.418;17.962;2023-06-22T04:02:04;16.75;;;11.02;;
70832;SDS011;58452;59.418;17.962;2023-06-22T04:04:29;13.10;;;11.73;;
70832;SDS011;58452;59.418;17.962;2023-06-22T04:06:55;13.68;;;12.10;;
70832;SDS011;58452;59.418;17.962;2023-06-22T04:09:20;12.40;;;11.23;;
70832;SDS011;58452;59.418;17.962;2023-06-22T04:11:46;11.55;;;10.48;;
70832;SDS011;58452;59.418;17.962;2023-06-22T04:14:12;11.63;;;10.63;;
70832;SDS011;58452;59.418;17.962;2023-06-22T04:16:37;12.15;;;10.88;;
70832;SDS011;58452;59.418;17.962;2023-06-22T04:19:03;11.77;;;10.48;;
70832;SDS011;58452;59.418;17.962;2023-06-22T04:21:28;10.25;;;9.32;;
70832;SDS011;58452;59.418;17.962;2023-06-22T04:23:54;11.65;;;10.60;;
70832;SDS011;58452;59.418;17.962;2023-06-22T04:26:19;11.65;;;10.55;;
70832;SDS011;58452;59.418;17.962;2023-06-22T04:28:46;13.32;;;10.60;;
70832;SDS011;58452;59.418;17.962;2023-06-22T04:31:16;11.18;;;10.07;;
70832;SDS011;58452;59.418;17.962;2023-06-22T04:33:42;10.40;;;9.52;;
70832;SDS011;58452;59.418;17.962;2023-06-22T04:36:07;12.68;;;9.52;;
70832;SDS011;58452;59.418;17.962;2023-06-22T04:38:33;10.60;;;9.55;;
70832;SDS011;58452;59.418;17.962;2023-06-22T04:40:58;10.48;;;9.57;;
70832;SDS011;58452;59.418;17.962;2023-06-22T04:43:26;13.75;;;10.45;;
70832;SDS011;58452;59.418;17.962;2023-06-22T04:45:55;10.00;;;9.00;;
70832;SDS011;58452;59.418;17.962;2023-06-22T04:48:20;9.68;;;8.85;;
70832;SDS011;58452;59.418;17.962;2023-06-22T04:50:46;10.98;;;9.27;;
70832;SDS011;58452;59.418;17.962;2023-06-22T04:53:11;10.05;;;9.05;;
70832;SDS011;58452;59.418;17.962;2023-06-22T04:55:37;10.68;;;9.68;;
70832;SDS011;58452;59.418;17.962;2023-06-22T04:58:06;11.45;;;9.77;;
70832;SDS011;58452;59.418;17.962;2023-06-22T05:00:32;13.40;;;9.95;;
70832;SDS011;58452;59.418;17.962;2023-06-22T05:03:01;10.63;;;9.63;;
70832;SDS011;58452;59.418;17.962;2023-06-22T05:05:28;12.02;;;9.55;;
70832;SDS011;58452;59.418;17.962;2023-06-22T05:07:56;15.82;;;9.57;;
70832;SDS011;58452;59.418;17.962;2023-06-22T05:10:24;13.23;;;9.93;;
70832;SDS011;58452;59.418;17.962;2023-06-22T05:12:50;10.10;;;8.88;;
70832;SDS011;58452;59.418;17.962;2023-06-22T05:15:15;10.57;;;9.52;;
70832;SDS011;58452;59.418;17.962;2023-06-22T05:17:41;9.52;;;8.63;;
70832;SDS011;58452;59.418;17.962;2023-06-22T05:20:12;9.65;;;8.65;;
70832;SDS011;58452;59.418;17.962;2023-06-22T05:22:38;14.05;;;9.27;;
70832;SDS011;58452;59.418;17.962;2023-06-22T05:25:08;9.77;;;8.77;;
70832;SDS011;58452;59.418;17.962;2023-06-22T05:27:34;13.20;;;8.43;;
70832;SDS011;58452;59.418;17.962;2023-06-22T05:30:04;8.70;;;7.90;;
70832;SDS011;58452;59.418;17.962;2023-06-22T05:32:31;8.77;;;7.82;;
70832;SDS011;58452;59.418;17.962;2023-06-22T05:34:57;9.23;;;7.93;;
70832;SDS011;58452;59.418;17.962;2023-06-22T05:37:22;7.47;;;6.78;;
70832;SDS011;58452;59.418;17.962;2023-06-22T05:39:48;8.45;;;7.13;;
70832;SDS011;58452;59.418;17.962;2023-06-22T05:42:13;8.10;;;7.30;;
70832;SDS011;58452;59.418;17.962;2023-06-22T05:44:38;7.95;;;7.25;;
70832;SDS011;58452;59.418;17.962;2023-06-22T05:47:05;8.90;;;7.60;;
70832;SDS011;58452;59.418;17.962;2023-06-22T05:49:31;8.13;;;7.43;;
70832;SDS011;58452;59.418;17.962;2023-06-22T05:51:58;7.20;;;6.50;;
70832;SDS011;58452;59.418;17.962;2023-06-22T05:54:24;7.13;;;6.53;;
70832;SDS011;58452;59.418;17.962;2023-06-22T05:56:50;7.40;;;6.70;;
70832;SDS011;58452;59.418;17.962;2023-06-22T05:59:16;7.07;;;6.47;;
70832;SDS011;58452;59.418;17.962;2023-06-22T06:01:41;8.07;;;6.70;;
70832;SDS011;58452;59.418;17.962;2023-06-22T06:04:06;8.18;;;7.30;;
70832;SDS011;58452;59.418;17.962;2023-06-22T06:06:35;7.80;;;7.10;;
70832;SDS011;58452;59.418;17.962;2023-06-22T06:09:05;7.88;;;6.97;;
70832;SDS011;58452;59.418;17.962;2023-06-22T06:11:31;7.38;;;6.70;;
70832;SDS011;58452;59.418;17.962;2023-06-22T06:13:57;8.65;;;7.50;;
70832;SDS011;58452;59.418;17.962;2023-06-22T06:16:22;8.75;;;7.00;;
70832;SDS011;58452;59.418;17.962;2023-06-22T06:18:48;9.18;;;8.23;;
70832;SDS011;58452;59.418;17.962;2023-06-22T06:21:16;7.40;;;6.70;;
70832;SDS011;58452;59.418;17.962;2023-06-22T06:23:41;9.10;;;7.18;;
70832;SDS011;58452;59.418;17.962;2023-06-22T06:26:07;8.63;;;7.60;;
70832;SDS011;58452;59.418;17.962;2023-06-22T06:28:33;10.70;;;7.28;;
70832;SDS011;58452;59.418;17.962;2023-06-22T06:30:59;9.15;;;6.95;;
70832;SDS011;58452;59.418;17.962;2023-06-22T06:33:24;10.10;;;6.57;;
70832;SDS011;58452;59.418;17.962;2023-06-22T06:35:50;8.43;;;7.00;;
70832;SDS011;58452;59.418;17.962;2023-06-22T06:38:15;11.15;;;6.90;;
70832;SDS011;58452;59.418;17.962;2023-06-22T06:40:40;8.05;;;6.95;;
70832;SDS011;58452;59.418;17.962;2023-06-22T06:43:06;10.95;;;7.45;;
70832;SDS011;58452;59.418;17.962;2023-06-22T06:45:31;9.85;;;7.15;;
70832;SDS011;58452;59.418;17.962;2023-06-22T06:47:59;13.40;;;7.38;;
70832;SDS011;58452;59.418;17.962;2023-06-22T06:50:25;13.40;;;6.32;;
70832;SDS011;58452;59.418;17.962;2023-06-22T06:52:50;10.82;;;5.97;;
70832;SDS011;58452;59.418;17.962;2023-06-22T06:55:16;7.57;;;6.72;;
70832;SDS011;58452;59.418;17.962;2023-06-22T06:57:42;9.48;;;6.75;;
70832;SDS011;58452;59.418;17.962;2023-06-22T07:00:08;12.90;;;6.50;;
70832;SDS011;58452;59.418;17.962;2023-06-22T07:02:37;12.50;;;6.00;;
70832;SDS011;58452;59.418;17.962;2023-06-22T07:05:05;7.50;;;5.40;;
70832;SDS011;58452;59.418;17.962;2023-06-22T07:07:30;9.90;;;6.07;;
70832;SDS011;58452;59.418;17.962;2023-06-22T07:09:56;6.22;;;5.40;;
70832;SDS011;58452;59.418;17.962;2023-06-22T07:12:22;5.45;;;4.95;;
70832;SDS011;58452;59.418;17.962;2023-06-22T07:14:47;10.82;;;5.50;;
70832;SDS011;58452;59.418;17.962;2023-06-22T07:17:13;6.40;;;5.40;;
70832;SDS011;58452;59.418;17.962;2023-06-22T07:19:38;7.55;;;5.50;;
70832;SDS011;58452;59.418;17.962;2023-06-22T07:22:04;11.20;;;6.68;;
70832;SDS011;58452;59.418;17.962;2023-06-22T07:24:47;13.70;;;5.32;;
70832;SDS011;58452;59.418;17.962;2023-06-22T07:27:14;6.57;;;5.40;;
70832;SDS011;58452;59.418;17.962;2023-06-22T07:29:43;10.05;;;5.75;;
70832;SDS011;58452;59.418;17.962;2023-06-22T07:32:08;8.73;;;5.90;;
70832;SDS011;58452;59.418;17.962;2023-06-22T07:34:34;9.10;;;5.57;;
70832;SDS011;58452;59.418;17.962;2023-06-22T07:36:59;8.30;;;5.85;;
70832;SDS011;58452;59.418;17.962;2023-06-22T07:39:25;6.22;;;4.78;;
70832;SDS011;58452;59.418;17.962;2023-06-22T07:41:51;6.03;;;5.30;;
70832;SDS011;58452;59.418;17.962;2023-06-22T07:44:17;6.28;;;4.57;;
70832;SDS011;58452;59.418;17.962;2023-06-22T07:46:42;8.93;;;5.93;;
70832;SDS011;58452;59.418;17.962;2023-06-22T07:49:08;6.00;;;5.28;;
70832;SDS011;58452;59.418;17.962;2023-06-22T07:51:33;8.48;;;5.65;;
70832;SDS011;58452;59.418;17.962;2023-06-22T07:53:59;6.40;;;5.22;;
70832;SDS011;58452;59.418;17.962;2023-06-22T07:56:24;7.85;;;5.35;;
70832;SDS011;58452;59.418;17.962;2023-06-22T07:58:50;5.32;;;4.55;;
70832;SDS011;58452;59.418;17.962;2023-06-22T08:01:15;7.95;;;5.63;;
70832;SDS011;58452;59.418;17.962;2023-06-22T08:03:42;11.82;;;5.70;;
70832;SDS011;58452;59.418;17.962;2023-06-22T08:06:08;10.50;;;5.18;;
70832;SDS011;58452;59.418;17.962;2023-06-22T08:08:37;6.00;;;4.85;;
70832;SDS011;58452;59.418;17.962;2023-06-22T08:11:03;11.90;;;5.32;;
70832;SDS011;58452;59.418;17.962;2023-06-22T08:13:28;10.25;;;5.68;;
70832;SDS011;58452;59.418;17.962;2023-06-22T08:15:54;9.52;;;5.57;;
70832;SDS011;58452;59.418;17.962;2023-06-22T08:18:19;5.13;;;4.20;;
70832;SDS011;58452;59.418;17.962;2023-06-22T08:20:45;5.97;;;4.60;;
70832;SDS011;58452;59.418;17.962;2023-06-22T08:23:10;10.00;;;5.75;;
70832;SDS011;58452;59.418;17.962;2023-06-22T08:25:36;4.13;;;3.70;;
70832;SDS011;58452;59.418;17.962;2023-06-22T08:28:01;9.30;;;4.60;;
70832;SDS011;58452;59.418;17.962;2023-06-22T08:30:27;5.00;;;4.13;;
70832;SDS011;58452;59.418;17.962;2023-06-22T08:32:53;10.23;;;5.10;;
70832;SDS011;58452;59.418;17.962;2023-06-22T08:35:20;7.63;;;4.50;;
70832;SDS011;58452;59.418;17.962;2023-06-22T08:37:47;7.88;;;4.45;;
70832;SDS011;58452;59.418;17.962;2023-06-22T08:40:16;5.65;;;4.50;;
70832;SDS011;58452;59.418;17.962;2023-06-22T08:42:42;7.25;;;4.80;;
70832;SDS011;58452;59.418;17.962;2023-06-22T08:45:08;8.57;;;5.22;;
70832;SDS011;58452;59.418;17.962;2023-06-22T08:47:34;8.93;;;5.65;;
70832;SDS011;58452;59.418;17.962;2023-06-22T08:49:59;10.05;;;4.45;;
70832;SDS011;58452;59.418;17.962;2023-06-22T08:52:27;4.93;;;3.97;;
70832;SDS011;58452;59.418;17.962;2023-06-22T08:54:52;7.32;;;4.20;;
70832;SDS011;58452;59.418;17.962;2023-06-22T08:57:18;7.43;;;4.63;;
70832;SDS011;58452;59.418;17.962;2023-06-22T08:59:43;4.43;;;4.03;;
70832;SDS011;58452;59.418;17.962;2023-06-22T09:02:09;5.30;;;4.15;;
70832;SDS011;58452;59.418;17.962;2023-06-22T09:04:34;4.90;;;4.45;;
70832;SDS011;58452;59.418;17.962;2023-06-22T09:07:00;8.88;;;4.72;;
70832;SDS011;58452;59.418;17.962;2023-06-22T09:09:26;7.53;;;4.20;;
70832;SDS011;58452;59.418;17.962;2023-06-22T09:11:51;11.18;;;5.28;;
70832;SDS011;58452;59.418;17.962;2023-06-22T09:14:17;6.07;;;4.47;;
70832;SDS011;58452;59.418;17.962;2023-06-22T09:16:42;5.78;;;4.07;;
70832;SDS011;58452;59.418;17.962;2023-06-22T09:19:08;5.78;;;3.75;;
70832;SDS011;58452;59.418;17.962;2023-06-22T09:21:33;6.47;;;4.07;;
70832;SDS011;58452;59.418;17.962;2023-06-22T09:23:59;7.93;;;3.45;;
70832;SDS011;58452;59.418;17.962;2023-06-22T09:26:24;6.85;;;4.10;;
70832;SDS011;58452;59.418;17.962;2023-06-22T09:28:50;9.90;;;4.45;;
70832;SDS011;58452;59.418;17.962;2023-06-22T09:31:15;6.30;;;3.72;;
70832;SDS011;58452;59.418;17.962;2023-06-22T09:33:41;4.97;;;4.15;;
70832;SDS011;58452;59.418;17.962;2023-06-22T09:36:07;8.85;;;3.72;;
70832;SDS011;58452;59.418;17.962;2023-06-22T09:38:37;4.88;;;3.67;;
70832;SDS011;58452;59.418;17.962;2023-06-22T09:41:03;12.38;;;3.20;;
70832;SDS011;58452;59.418;17.962;2023-06-22T09:43:29;6.55;;;3.90;;
70832;SDS011;58452;59.418;17.962;2023-06-22T09:45:56;12.15;;;4.03;;
70832;SDS011;58452;59.418;17.962;2023-06-22T09:48:21;10.25;;;3.75;;
70832;SDS011;58452;59.418;17.962;2023-06-22T09:50:47;4.47;;;3.47;;
70832;SDS011;58452;59.418;17.962;2023-06-22T09:53:12;4.35;;;3.58;;
70832;SDS011;58452;59.418;17.962;2023-06-22T09:55:38;8.90;;;3.80;;
70832;SDS011;58452;59.418;17.962;2023-06-22T09:58:03;8.90;;;3.40;;
70832;SDS011;58452;59.418;17.962;2023-06-22T10:00:28;4.30;;;3.65;;
70832;SDS011;58452;59.418;17.962;2023-06-22T10:02:54;8.40;;;4.25;;
70832;SDS011;58452;59.418;17.962;2023-06-22T10:05:20;10.68;;;4.60;;
70832;SDS011;58452;59.418;17.962;2023-06-22T10:07:46;10.25;;;4.85;;
70832;SDS011;58452;59.418;17.962;2023-06-22T10:10:12;8.00;;;3.95;;
70832;SDS011;58452;59.418;17.962;2023-06-22T10:12:45;4.88;;;4.10;;
70832;SDS011;58452;59.418;17.962;2023-06-22T10:15:12;5.03;;;3.28;;
70832;SDS011;58452;59.418;17.962;2023-06-22T10:17:38;4.13;;;3.42;;
70832;SDS011;58452;59.418;17.962;2023-06-22T10:20:05;4.70;;;3.88;;
70832;SDS011;58452;59.418;17.962;2023-06-22T10:22:37;4.72;;;3.20;;
70832;SDS011;58452;59.418;17.962;2023-06-22T10:25:06;6.40;;;2.58;;
70832;SDS011;58452;59.418;17.962;2023-06-22T10:27:32;4.55;;;3.17;;
70832;SDS011;58452;59.418;17.962;2023-06-22T10:29:57;5.15;;;3.72;;
70832;SDS011;58452;59.418;17.962;2023-06-22T10:32:23;4.57;;;3.55;;
70832;SDS011;58452;59.418;17.962;2023-06-22T10:34:48;3.67;;;2.75;;
70832;SDS011;58452;59.418;17.962;2023-06-22T10:37:14;5.32;;;3.15;;
70832;SDS011;58452;59.418;17.962;2023-06-22T10:39:40;5.32;;;3.15;;
70832;SDS011;58452;59.418;17.962;2023-06-22T10:42:06;5.65;;;3.25;;
70832;SDS011;58452;59.418;17.962;2023-06-22T10:44:31;9.05;;;2.72;;
70832;SDS011;58452;59.418;17.962;2023-06-22T10:46:57;6.07;;;2.70;;
70832;SDS011;58452;59.418;17.962;2023-06-22T10:49:22;6.57;;;3.60;;
70832;SDS011;58452;59.418;17.962;2023-06-22T10:51:48;6.18;;;3.42;;
70832;SDS011;58452;59.418;17.962;2023-06-22T10:54:13;5.85;;;3.17;;
70832;SDS011;58452;59.418;17.962;2023-06-22T10:56:39;5.38;;;3.25;;
70832;SDS011;58452;59.418;17.962;2023-06-22T10:59:05;6.03;;;2.45;;
70832;SDS011;58452;59.418;17.962;2023-06-22T11:01:30;3.58;;;2.92;;
70832;SDS011;58452;59.418;17.962;2023-06-22T11:03:56;4.30;;;3.13;;
70832;SDS011;58452;59.418;17.962;2023-06-22T11:06:22;10.18;;;4.05;;
70832;SDS011;58452;59.418;17.962;2023-06-22T11:08:47;8.63;;;3.70;;
70832;SDS011;58452;59.418;17.962;2023-06-22T11:11:13;11.55;;;2.80;;
70832;SDS011;58452;59.418;17.962;2023-06-22T11:13:38;8.27;;;3.25;;
70832;SDS011;58452;59.418;17.962;2023-06-22T11:16:04;4.57;;;2.60;;
70832;SDS011;58452;59.418;17.962;2023-06-22T11:18:30;5.68;;;3.00;;
70832;SDS011;58452;59.418;17.962;2023-06-22T11:20:58;5.45;;;2.85;;
70832;SDS011;58452;59.418;17.962;2023-06-22T11:23:23;4.75;;;3.03;;
70832;SDS011;58452;59.418;17.962;2023-06-22T11:25:51;4.38;;;2.83;;
70832;SDS011;58452;59.418;17.962;2023-06-22T11:28:16;7.00;;;3.05;;
70832;SDS011;58452;59.418;17.962;2023-06-22T11:30:42;4.38;;;3.00;;
70832;SDS011;58452;59.418;17.962;2023-06-22T11:33:07;4.35;;;2.60;;
70832;SDS011;58452;59.418;17.962;2023-06-22T11:35:33;7.57;;;2.97;;
70832;SDS011;58452;59.418;17.962;2023-06-22T11:37:58;4.90;;;3.13;;
70832;SDS011;58452;59.418;17.962;2023-06-22T11:40:23;6.80;;;3.00;;
70832;SDS011;58452;59.418;17.962;2023-06-22T11:42:49;7.85;;;2.90;;
70832;SDS011;58452;59.418;17.962;2023-06-22T11:45:14;11.43;;;3.28;;
70832;SDS011;58452;59.418;17.962;2023-06-22T11:47:40;6.35;;;3.05;;
70832;SDS011;58452;59.418;17.962;2023-06-22T11:50:05;4.68;;;2.65;;
70832;SDS011;58452;59.418;17.962;2023-06-22T11:52:33;6.13;;;2.33;;
70832;SDS011;58452;59.418;17.962;2023-06-22T11:54:58;3.47;;;3.17;;
70832;SDS011;58452;59.418;17.962;2023-06-22T11:57:24;4.25;;;2.83;;
70832;SDS011;58452;59.418;17.962;2023-06-22T11:59:50;7.15;;;3.67;;
70832;SDS011;58452;59.418;17.962;2023-06-22T12:02:15;5.35;;;2.30;;
70832;SDS011;58452;59.418;17.962;2023-06-22T12:04:40;3.38;;;2.50;;
70832;SDS011;58452;59.418;17.962;2023-06-22T12:07:06;3.53;;;2.20;;
70832;SDS011;58452;59.418;17.962;2023-06-22T12:09:32;4.90;;;2.90;;
70832;SDS011;58452;59.418;17.962;2023-06-22T12:11:58;2.78;;;2.55;;
70832;SDS011;58452;59.418;17.962;2023-06-22T12:14:23;11.85;;;2.92;;
70832;SDS011;58452;59.418;17.962;2023-06-22T12:16:48;4.05;;;2.50;;
70832;SDS011;58452;59.418;17.962;2023-06-22T12:19:14;3.42;;;2.30;;
70832;SDS011;58452;59.418;17.962;2023-06-22T12:21:39;6.95;;;2.63;;
70832;SDS011;58452;59.418;17.962;2023-06-22T12:24:05;4.78;;;2.67;;
70832;SDS011;58452;59.418;17.962;2023-06-22T12:26:31;5.68;;;2.67;;
70832;SDS011;58452;59.418;17.962;2023-06-22T12:28:56;6.20;;;3.28;;
70832;SDS011;58452;59.418;17.962;2023-06-22T12:31:22;6.20;;;2.85;;
70832;SDS011;58452;59.418;17.962;2023-06-22T12:33:47;4.72;;;3.35;;
70832;SDS011;58452;59.418;17.962;2023-06-22T12:36:13;3.50;;;3.20;;
70832;SDS011;58452;59.418;17.962;2023-06-22T12:38:38;7.63;;;3.40;;
70832;SDS011;58452;59.418;17.962;2023-06-22T12:41:04;3.13;;;2.67;;
70832;SDS011;58452;59.418;17.962;2023-06-22T12:43:29;4.55;;;3.28;;
70832;SDS011;58452;59.418;17.962;2023-06-22T12:45:54;3.28;;;2.38;;
70832;SDS011;58452;59.418;17.962;2023-06-22T12:48:21;5.63;;;2.90;;
70832;SDS011;58452;59.418;17.962;2023-06-22T12:50:47;3.67;;;3.03;;
70832;SDS011;58452;59.418;17.962;2023-06-22T12:53:13;6.63;;;3.10;;
70832;SDS011;58452;59.418;17.962;2023-06-22T12:55:38;6.88;;;2.58;;
70832;SDS011;58452;59.418;17.962;2023-06-22T12:58:03;4.68;;;2.78;;
70832;SDS011;58452;59.418;17.962;2023-06-22T13:00:29;7.32;;;3.03;;
70832;SDS011;58452;59.418;17.962;2023-06-22T13:02:54;4.05;;;2.60;;
70832;SDS011;58452;59.418;17.962;2023-06-22T13:05:20;6.75;;;3.03;;
70832;SDS011;58452;59.418;17.962;2023-06-22T13:07:45;5.63;;;2.85;;
70832;SDS011;58452;59.418;17.962;2023-06-22T13:10:12;5.18;;;2.45;;
70832;SDS011;58452;59.418;17.962;2023-06-22T13:12:37;3.60;;;3.22;;
70832;SDS011;58452;59.418;17.962;2023-06-22T13:15:03;5.15;;;2.58;;
70832;SDS011;58452;59.418;17.962;2023-06-22T13:17:28;3.28;;;2.70;;
70832;SDS011;58452;59.418;17.962;2023-06-22T13:19:54;6.53;;;3.35;;
70832;SDS011;58452;59.418;17.962;2023-06-22T13:22:32;8.52;;;3.55;;
70832;SDS011;58452;59.418;17.962;2023-06-22T13:25:05;5.25;;;3.70;;
70832;SDS011;58452;59.418;17.962;2023-06-22T13:27:31;14.00;;;3.75;;
70832;SDS011;58452;59.418;17.962;2023-06-22T13:29:56;5.97;;;2.50;;
70832;SDS011;58452;59.418;17.962;2023-06-22T13:32:22;3.58;;;2.55;;
70832;SDS011;58452;59.418;17.962;2023-06-22T13:34:47;4.10;;;2.70;;
70832;SDS011;58452;59.418;17.962;2023-06-22T13:37:12;3.40;;;2.80;;
70832;SDS011;58452;59.418;17.962;2023-06-22T13:39:38;5.97;;;2.30;;
70832;SDS011;58452;59.418;17.962;2023-06-22T13:42:03;5.68;;;2.15;;
70832;SDS011;58452;59.418;17.962;2023-06-22T13:44:29;7.57;;;2.17;;
70832;SDS011;58452;59.418;17.962;2023-06-22T13:46:55;6.55;;;2.17;;
70832;SDS011;58452;59.418;17.962;2023-06-22T13:49:20;4.43;;;2.33;;
70832;SDS011;58452;59.418;17.962;2023-06-22T13:51:46;5.38;;;2.40;;
70832;SDS011;58452;59.418;17.962;2023-06-22T13:54:13;7.38;;;2.15;;
70832;SDS011;58452;59.418;17.962;2023-06-22T13:56:38;3.33;;;2.13;;
70832;SDS011;58452;59.418;17.962;2023-06-22T13:59:04;3.80;;;2.20;;
70832;SDS011;58452;59.418;17.962;2023-06-22T14:01:29;4.47;;;2.05;;
70832;SDS011;58452;59.418;17.962;2023-06-22T14:03:55;4.30;;;2.35;;
70832;SDS011;58452;59.418;17.962;2023-06-22T14:06:20;2.10;;;1.88;;
70832;SDS011;58452;59.418;17.962;2023-06-22T14:08:45;2.88;;;1.95;;
70832;SDS011;58452;59.418;17.962;2023-06-22T14:11:11;2.17;;;1.95;;
70832;SDS011;58452;59.418;17.962;2023-06-22T14:13:36;6.18;;;2.70;;
70832;SDS011;58452;59.418;17.962;2023-06-22T14:16:02;4.43;;;2.58;;
70832;SDS011;58452;59.418;17.962;2023-06-22T14:18:28;4.72;;;2.13;;
70832;SDS011;58452;59.418;17.962;2023-06-22T14:20:54;4.72;;;2.72;;
70832;SDS011;58452;59.418;17.962;2023-06-22T14:23:19;6.07;;;2.55;;
70832;SDS011;58452;59.418;17.962;2023-06-22T14:25:45;5.53;;;2.00;;
70832;SDS011;58452;59.418;17.962;2023-06-22T14:28:10;5.75;;;2.15;;
70832;SDS011;58452;59.418;17.962;2023-06-22T14:30:35;4.40;;;1.83;;
70832;SDS011;58452;59.418;17.962;2023-06-22T14:33:01;7.40;;;2.40;;